sensor_id;sensor_type;location;lat;lon;timestamp;temperature;humidity
20740;DHT22;10530;49.968;19.844;2023-06-10T00:03:05;16.50;99.90
20740;DHT22;10530;49.968;19.844;2023-06-10T00:08:08;16.50;99.90
20740;DHT22;10530;49.968;19.844;2023-06-10T00:13:11;16.60;99.90
20740;DHT22;10530;49.968;19.844;2023-06-10T00:18:14;16.70;99.90
20740;DHT22;10530;49.968;19.844;2023-06-10T00:23:16;16.60;99.90
20740;DHT22;10530;49.968;19.844;2023-06-10T00:28:19;16.60;99.90
20740;DHT22;10530;49.968;19.844;2023-06-10T00:33:22;16.60;99.90
20740;DHT22;10530;49.968;19.844;2023-06-10T00:38:25;16.60;99.90
20740;DHT22;10530;49.968;19.844;2023-06-10T00:43:28;16.60;99.90
20740;DHT22;10530;49.968;19.844;2023-06-10T00:48:31;16.70;99.90
20740;DHT22;10530;49.968;19.844;2023-06-10T00:53:35;16.80;99.90
20740;DHT22;10530;49.968;19.844;2023-06-10T00:58:39;16.90;99.90
20740;DHT22;10530;49.968;19.844;2023-06-10T01:03:42;16.80;99.90
20740;DHT22;10530;49.968;19.844;2023-06-10T01:08:56;16.80;99.90
20740;DHT22;10530;49.968;19.844;2023-06-10T01:14:00;16.90;99.90
20740;DHT22;10530;49.968;19.844;2023-06-10T01:19:04;16.90;99.90
20740;DHT22;10530;49.968;19.844;2023-06-10T01:24:06;17.00;99.90
20740;DHT22;10530;49.968;19.844;2023-06-10T01:29:47;17.10;99.90
20740;DHT22;10530;49.968;19.844;2023-06-10T01:34:56;17.00;99.90
20740;DHT22;10530;49.968;19.844;2023-06-10T01:40:00;17.10;99.90
20740;DHT22;10530;49.968;19.844;2023-06-10T01:45:10;17.00;99.90
20740;DHT22;10530;49.968;19.844;2023-06-10T01:50:13;17.00;99.90
20740;DHT22;10530;49.968;19.844;2023-06-10T01:55:15;16.90;99.90
20740;DHT22;10530;49.968;19.844;2023-06-10T02:00:18;17.00;99.90
20740;DHT22;10530;49.968;19.844;2023-06-10T02:05:21;16.90;99.90
20740;DHT22;10530;49.968;19.844;2023-06-10T02:10:24;16.80;99.90
20740;DHT22;10530;49.968;19.844;2023-06-10T02:15:27;16.80;99.90
20740;DHT22;10530;49.968;19.844;2023-06-10T02:20:30;16.80;99.90
20740;DHT22;10530;49.968;19.844;2023-06-10T02:25:32;16.90;99.90
20740;DHT22;10530;49.968;19.844;2023-06-10T02:30:35;16.90;99.90
20740;DHT22;10530;49.968;19.844;2023-06-10T02:35:39;17.00;99.90
20740;DHT22;10530;49.968;19.844;2023-06-10T02:40:42;17.00;99.90
20740;DHT22;10530;49.968;19.844;2023-06-10T02:45:47;17.00;99.90
20740;DHT22;10530;49.968;19.844;2023-06-10T02:50:51;17.10;99.90
20740;DHT22;10530;49.968;19.844;2023-06-10T02:56:09;17.20;99.90
20740;DHT22;10530;49.968;19.844;2023-06-10T03:01:12;17.30;99.90
20740;DHT22;10530;49.968;19.844;2023-06-10T03:06:36;17.30;99.90
20740;DHT22;10530;49.968;19.844;2023-06-10T03:11:56;17.40;99.90
20740;DHT22;10530;49.968;19.844;2023-06-10T03:16:59;17.40;99.90
20740;DHT22;10530;49.968;19.844;2023-06-10T03:22:13;17.40;99.90
20740;DHT22;10530;49.968;19.844;2023-06-10T03:27:45;17.40;99.90
20740;DHT22;10530;49.968;19.844;2023-06-10T03:32:48;17.40;99.90
20740;DHT22;10530;49.968;19.844;2023-06-10T03:37:53;17.50;99.90
20740;DHT22;10530;49.968;19.844;2023-06-10T03:42:56;17.60;99.90
20740;DHT22;10530;49.968;19.844;2023-06-10T03:48:01;17.60;99.90
20740;DHT22;10530;49.968;19.844;2023-06-10T03:53:12;17.60;99.90
20740;DHT22;10530;49.968;19.844;2023-06-10T03:58:17;17.70;99.90
20740;DHT22;10530;49.968;19.844;2023-06-10T04:03:21;17.60;99.90
20740;DHT22;10530;49.968;19.844;2023-06-10T04:08:26;17.60;99.90
20740;DHT22;10530;49.968;19.844;2023-06-10T04:13:29;17.60;99.90
20740;DHT22;10530;49.968;19.844;2023-06-10T04:18:33;17.60;99.90
20740;DHT22;10530;49.968;19.844;2023-06-10T04:23:40;17.70;99.90
20740;DHT22;10530;49.968;19.844;2023-06-10T04:28:44;17.60;99.90
20740;DHT22;10530;49.968;19.844;2023-06-10T04:33:48;17.70;99.90
20740;DHT22;10530;49.968;19.844;2023-06-10T04:38:51;17.70;99.90
20740;DHT22;10530;49.968;19.844;2023-06-10T04:43:56;17.80;99.90
20740;DHT22;10530;49.968;19.844;2023-06-10T04:48:59;17.90;99.90
20740;DHT22;10530;49.968;19.844;2023-06-10T04:54:02;17.90;99.90
20740;DHT22;10530;49.968;19.844;2023-06-10T04:59:06;17.90;99.90
20740;DHT22;10530;49.968;19.844;2023-06-10T05:04:09;17.90;99.90
20740;DHT22;10530;49.968;19.844;2023-06-10T05:09:11;18.00;99.90
20740;DHT22;10530;49.968;19.844;2023-06-10T05:14:14;18.00;99.90
20740;DHT22;10530;49.968;19.844;2023-06-10T05:19:19;17.90;99.90
20740;DHT22;10530;49.968;19.844;2023-06-10T05:24:21;18.10;99.90
20740;DHT22;10530;49.968;19.844;2023-06-10T05:29:25;18.00;99.90
20740;DHT22;10530;49.968;19.844;2023-06-10T05:34:28;18.10;99.90
20740;DHT22;10530;49.968;19.844;2023-06-10T05:39:31;18.20;99.90
20740;DHT22;10530;49.968;19.844;2023-06-10T05:44:34;18.30;99.90
20740;DHT22;10530;49.968;19.844;2023-06-10T05:49:37;18.40;99.90
20740;DHT22;10530;49.968;19.844;2023-06-10T05:54:39;18.20;99.90
20740;DHT22;10530;49.968;19.844;2023-06-10T05:59:42;18.40;99.90
20740;DHT22;10530;49.968;19.844;2023-06-10T06:04:45;18.50;99.90
20740;DHT22;10530;49.968;19.844;2023-06-10T06:09:48;18.50;99.90
20740;DHT22;10530;49.968;19.844;2023-06-10T06:14:51;18.70;99.90
20740;DHT22;10530;49.968;19.844;2023-06-10T06:19:53;18.90;99.90
20740;DHT22;10530;49.968;19.844;2023-06-10T06:24:56;19.20;99.90
20740;DHT22;10530;49.968;19.844;2023-06-10T06:29:59;19.10;99.90
20740;DHT22;10530;49.968;19.844;2023-06-10T06:35:03;19.50;99.90
20740;DHT22;10530;49.968;19.844;2023-06-10T06:40:09;19.60;99.90
20740;DHT22;10530;49.968;19.844;2023-06-10T06:45:11;19.80;99.90
20740;DHT22;10530;49.968;19.844;2023-06-10T06:50:14;20.10;99.90
20740;DHT22;10530;49.968;19.844;2023-06-10T06:55:17;20.20;99.90
20740;DHT22;10530;49.968;19.844;2023-06-10T07:00:20;20.60;99.90
20740;DHT22;10530;49.968;19.844;2023-06-10T07:05:24;20.60;99.90
20740;DHT22;10530;49.968;19.844;2023-06-10T07:10:30;20.70;99.90
20740;DHT22;10530;49.968;19.844;2023-06-10T07:15:32;21.30;99.90
20740;DHT22;10530;49.968;19.844;2023-06-10T07:20:35;21.60;99.90
20740;DHT22;10530;49.968;19.844;2023-06-10T07:25:38;21.90;99.90
20740;DHT22;10530;49.968;19.844;2023-06-10T07:30:41;22.20;99.90
20740;DHT22;10530;49.968;19.844;2023-06-10T07:35:44;22.00;99.90
20740;DHT22;10530;49.968;19.844;2023-06-10T07:40:47;22.10;99.90
20740;DHT22;10530;49.968;19.844;2023-06-10T07:45:50;22.20;99.90
20740;DHT22;10530;49.968;19.844;2023-06-10T07:50:52;22.10;99.90
20740;DHT22;10530;49.968;19.844;2023-06-10T07:55:55;21.60;99.90
20740;DHT22;10530;49.968;19.844;2023-06-10T08:00:58;21.70;99.90
20740;DHT22;10530;49.968;19.844;2023-06-10T08:06:01;21.60;99.90
20740;DHT22;10530;49.968;19.844;2023-06-10T08:11:03;21.70;99.90
20740;DHT22;10530;49.968;19.844;2023-06-10T08:16:07;22.00;99.90
20740;DHT22;10530;49.968;19.844;2023-06-10T08:21:10;22.40;99.90
20740;DHT22;10530;49.968;19.844;2023-06-10T08:26:13;22.50;99.90
20740;DHT22;10530;49.968;19.844;2023-06-10T08:31:15;22.80;99.90
20740;DHT22;10530;49.968;19.844;2023-06-10T08:36:18;22.80;99.90
20740;DHT22;10530;49.968;19.844;2023-06-10T08:41:21;23.20;99.90
20740;DHT22;10530;49.968;19.844;2023-06-10T08:46:28;23.20;99.90
20740;DHT22;10530;49.968;19.844;2023-06-10T08:51:32;22.70;99.90
20740;DHT22;10530;49.968;19.844;2023-06-10T08:56:39;22.40;99.90
20740;DHT22;10530;49.968;19.844;2023-06-10T09:01:47;22.90;99.90
20740;DHT22;10530;49.968;19.844;2023-06-10T09:06:50;23.30;99.90
20740;DHT22;10530;49.968;19.844;2023-06-10T09:11:53;23.90;99.90
20740;DHT22;10530;49.968;19.844;2023-06-10T09:16:56;24.70;99.90
20740;DHT22;10530;49.968;19.844;2023-06-10T09:21:59;25.40;99.90
20740;DHT22;10530;49.968;19.844;2023-06-10T09:27:08;26.70;99.90
20740;DHT22;10530;49.968;19.844;2023-06-10T09:32:11;26.60;99.90
20740;DHT22;10530;49.968;19.844;2023-06-10T09:37:20;25.90;99.90
20740;DHT22;10530;49.968;19.844;2023-06-10T09:42:23;25.40;99.90
20740;DHT22;10530;49.968;19.844;2023-06-10T09:47:26;25.70;99.90
20740;DHT22;10530;49.968;19.844;2023-06-10T09:52:29;24.60;99.90
20740;DHT22;10530;49.968;19.844;2023-06-10T09:57:33;24.70;99.90
20740;DHT22;10530;49.968;19.844;2023-06-10T10:02:49;25.20;99.90
20740;DHT22;10530;49.968;19.844;2023-06-10T10:07:52;25.40;99.90
20740;DHT22;10530;49.968;19.844;2023-06-10T10:12:55;24.30;99.90
20740;DHT22;10530;49.968;19.844;2023-06-10T10:23:08;23.40;99.90
20740;DHT22;10530;49.968;19.844;2023-06-10T10:28:13;22.60;99.90
20740;DHT22;10530;49.968;19.844;2023-06-10T10:33:23;22.10;99.90
20740;DHT22;10530;49.968;19.844;2023-06-10T10:38:28;21.90;99.90
20740;DHT22;10530;49.968;19.844;2023-06-10T10:43:31;21.50;99.90
20740;DHT22;10530;49.968;19.844;2023-06-10T10:48:37;21.50;99.90
20740;DHT22;10530;49.968;19.844;2023-06-10T10:53:40;21.50;99.90
20740;DHT22;10530;49.968;19.844;2023-06-10T10:59:04;21.90;99.90
20740;DHT22;10530;49.968;19.844;2023-06-10T11:04:10;22.10;99.90
20740;DHT22;10530;49.968;19.844;2023-06-10T11:09:27;22.30;99.90
20740;DHT22;10530;49.968;19.844;2023-06-10T11:14:31;22.60;99.90
20740;DHT22;10530;49.968;19.844;2023-06-10T11:19:38;22.70;99.90
20740;DHT22;10530;49.968;19.844;2023-06-10T11:24:52;23.10;99.90
20740;DHT22;10530;49.968;19.844;2023-06-10T11:35:04;25.00;99.90
20740;DHT22;10530;49.968;19.844;2023-06-10T11:40:07;24.00;99.90
20740;DHT22;10530;49.968;19.844;2023-06-10T11:45:15;23.30;99.90
20740;DHT22;10530;49.968;19.844;2023-06-10T11:50:32;23.10;99.90
20740;DHT22;10530;49.968;19.844;2023-06-10T12:00:50;23.10;99.90
20740;DHT22;10530;49.968;19.844;2023-06-10T12:05:58;22.80;99.90
20740;DHT22;10530;49.968;19.844;2023-06-10T12:11:01;23.40;99.90
20740;DHT22;10530;49.968;19.844;2023-06-10T12:16:10;23.30;99.90
20740;DHT22;10530;49.968;19.844;2023-06-10T12:21:20;24.10;99.90
20740;DHT22;10530;49.968;19.844;2023-06-10T12:26:37;23.70;99.90
20740;DHT22;10530;49.968;19.844;2023-06-10T12:32:01;24.10;99.90
20740;DHT22;10530;49.968;19.844;2023-06-10T12:37:11;26.10;99.90
20740;DHT22;10530;49.968;19.844;2023-06-10T12:42:16;26.80;99.90
20740;DHT22;10530;49.968;19.844;2023-06-10T12:47:19;26.00;99.90
20740;DHT22;10530;49.968;19.844;2023-06-10T12:52:22;24.80;99.90
20740;DHT22;10530;49.968;19.844;2023-06-10T12:57:25;24.40;99.90
20740;DHT22;10530;49.968;19.844;2023-06-10T13:02:28;24.40;99.90
20740;DHT22;10530;49.968;19.844;2023-06-10T13:07:31;25.20;99.90
20740;DHT22;10530;49.968;19.844;2023-06-10T13:12:33;24.80;99.90
20740;DHT22;10530;49.968;19.844;2023-06-10T13:17:49;25.70;99.90
20740;DHT22;10530;49.968;19.844;2023-06-10T13:22:53;26.10;99.90
20740;DHT22;10530;49.968;19.844;2023-06-10T13:27:56;26.60;99.90
20740;DHT22;10530;49.968;19.844;2023-06-10T13:32:59;27.40;99.90
20740;DHT22;10530;49.968;19.844;2023-06-10T13:38:02;27.30;88.80
20740;DHT22;10530;49.968;19.844;2023-06-10T13:43:05;27.40;87.40
20740;DHT22;10530;49.968;19.844;2023-06-10T13:48:07;27.30;83.70
20740;DHT22;10530;49.968;19.844;2023-06-10T13:53:11;25.30;98.50
20740;DHT22;10530;49.968;19.844;2023-06-10T13:58:14;24.40;99.90
20740;DHT22;10530;49.968;19.844;2023-06-10T14:03:17;24.80;99.50
20740;DHT22;10530;49.968;19.844;2023-06-10T14:08:20;23.70;99.90
20740;DHT22;10530;49.968;19.844;2023-06-10T14:13:23;24.70;99.90
20740;DHT22;10530;49.968;19.844;2023-06-10T14:18:26;23.60;99.90
20740;DHT22;10530;49.968;19.844;2023-06-10T14:23:29;24.20;99.90
20740;DHT22;10530;49.968;19.844;2023-06-10T14:28:31;25.30;99.90
20740;DHT22;10530;49.968;19.844;2023-06-10T14:33:34;25.00;97.50
20740;DHT22;10530;49.968;19.844;2023-06-10T14:38:37;26.00;95.00
20740;DHT22;10530;49.968;19.844;2023-06-10T14:43:39;25.90;94.50
20740;DHT22;10530;49.968;19.844;2023-06-10T14:48:42;26.50;97.40
20740;DHT22;10530;49.968;19.844;2023-06-10T14:53:45;26.30;95.20
20740;DHT22;10530;49.968;19.844;2023-06-10T14:58:48;25.80;94.10
20740;DHT22;10530;49.968;19.844;2023-06-10T15:03:51;25.40;96.20
20740;DHT22;10530;49.968;19.844;2023-06-10T15:08:53;25.10;97.40
20740;DHT22;10530;49.968;19.844;2023-06-10T15:13:56;25.10;96.00
20740;DHT22;10530;49.968;19.844;2023-06-10T15:19:00;25.10;97.20
20740;DHT22;10530;49.968;19.844;2023-06-10T15:24:03;25.40;93.00
20740;DHT22;10530;49.968;19.844;2023-06-10T15:29:05;24.90;92.40
20740;DHT22;10530;49.968;19.844;2023-06-10T15:34:09;24.50;90.60
20740;DHT22;10530;49.968;19.844;2023-06-10T15:39:12;24.10;95.20
20740;DHT22;10530;49.968;19.844;2023-06-10T15:44:15;23.70;99.90
20740;DHT22;10530;49.968;19.844;2023-06-10T15:49:17;23.10;99.90
20740;DHT22;10530;49.968;19.844;2023-06-10T15:54:20;23.80;99.20
20740;DHT22;10530;49.968;19.844;2023-06-10T15:59:23;23.80;99.90
20740;DHT22;10530;49.968;19.844;2023-06-10T16:04:26;22.70;99.20
20740;DHT22;10530;49.968;19.844;2023-06-10T16:09:29;23.30;99.90
20740;DHT22;10530;49.968;19.844;2023-06-10T16:14:32;23.10;99.90
20740;DHT22;10530;49.968;19.844;2023-06-10T16:19:34;22.70;99.90
20740;DHT22;10530;49.968;19.844;2023-06-10T16:24:41;22.10;99.90
20740;DHT22;10530;49.968;19.844;2023-06-10T16:29:45;21.80;99.90
20740;DHT22;10530;49.968;19.844;2023-06-10T16:34:48;21.40;99.90
20740;DHT22;10530;49.968;19.844;2023-06-10T16:39:50;21.30;99.90
20740;DHT22;10530;49.968;19.844;2023-06-10T16:44:53;21.20;99.90
20740;DHT22;10530;49.968;19.844;2023-06-10T16:49:56;21.40;99.90
20740;DHT22;10530;49.968;19.844;2023-06-10T16:54:59;21.80;99.90
20740;DHT22;10530;49.968;19.844;2023-06-10T17:00:02;21.30;99.90
20740;DHT22;10530;49.968;19.844;2023-06-10T17:05:06;20.90;99.90
20740;DHT22;10530;49.968;19.844;2023-06-10T17:10:10;20.70;99.90
20740;DHT22;10530;49.968;19.844;2023-06-10T17:15:13;20.50;99.90
20740;DHT22;10530;49.968;19.844;2023-06-10T17:20:16;20.50;99.90
20740;DHT22;10530;49.968;19.844;2023-06-10T17:25:19;20.30;99.90
20740;DHT22;10530;49.968;19.844;2023-06-10T17:30:22;20.00;99.90
20740;DHT22;10530;49.968;19.844;2023-06-10T17:35:25;19.90;99.90
20740;DHT22;10530;49.968;19.844;2023-06-10T17:40:28;19.90;99.90
20740;DHT22;10530;49.968;19.844;2023-06-10T17:45:31;19.70;99.90
20740;DHT22;10530;49.968;19.844;2023-06-10T17:50:33;19.60;99.90
20740;DHT22;10530;49.968;19.844;2023-06-10T17:55:37;19.40;99.90
20740;DHT22;10530;49.968;19.844;2023-06-10T18:00:40;19.40;99.90
20740;DHT22;10530;49.968;19.844;2023-06-10T18:05:43;19.20;99.90
20740;DHT22;10530;49.968;19.844;2023-06-10T18:10:46;19.20;99.90
20740;DHT22;10530;49.968;19.844;2023-06-10T18:15:49;19.00;99.90
20740;DHT22;10530;49.968;19.844;2023-06-10T18:20:52;18.90;99.90
20740;DHT22;10530;49.968;19.844;2023-06-10T18:25:55;18.80;99.90
20740;DHT22;10530;49.968;19.844;2023-06-10T18:31:00;18.70;99.90
20740;DHT22;10530;49.968;19.844;2023-06-10T18:36:03;18.70;99.90
20740;DHT22;10530;49.968;19.844;2023-06-10T18:41:06;18.60;99.90
20740;DHT22;10530;49.968;19.844;2023-06-10T18:46:09;18.60;99.90
20740;DHT22;10530;49.968;19.844;2023-06-10T18:51:12;18.40;99.90
20740;DHT22;10530;49.968;19.844;2023-06-10T18:56:15;18.30;99.90
20740;DHT22;10530;49.968;19.844;2023-06-10T19:01:18;18.20;99.90
20740;DHT22;10530;49.968;19.844;2023-06-10T19:06:21;18.10;99.90
20740;DHT22;10530;49.968;19.844;2023-06-10T19:11:24;18.00;99.90
20740;DHT22;10530;49.968;19.844;2023-06-10T19:16:28;17.90;99.90
20740;DHT22;10530;49.968;19.844;2023-06-10T19:21:31;17.80;99.90
20740;DHT22;10530;49.968;19.844;2023-06-10T19:26:34;17.70;99.90
20740;DHT22;10530;49.968;19.844;2023-06-10T19:31:40;17.70;99.90
20740;DHT22;10530;49.968;19.844;2023-06-10T19:36:43;17.50;99.90
20740;DHT22;10530;49.968;19.844;2023-06-10T19:41:46;17.40;99.90
20740;DHT22;10530;49.968;19.844;2023-06-10T19:46:50;17.30;99.90
20740;DHT22;10530;49.968;19.844;2023-06-10T19:51:53;17.20;99.90
20740;DHT22;10530;49.968;19.844;2023-06-10T19:56:56;17.00;99.90
20740;DHT22;10530;49.968;19.844;2023-06-10T20:01:59;16.90;99.90
20740;DHT22;10530;49.968;19.844;2023-06-10T20:07:02;16.80;99.90
20740;DHT22;10530;49.968;19.844;2023-06-10T20:12:05;16.90;99.90
20740;DHT22;10530;49.968;19.844;2023-06-10T20:17:09;16.90;99.90
20740;DHT22;10530;49.968;19.844;2023-06-10T20:22:11;16.90;99.90
20740;DHT22;10530;49.968;19.844;2023-06-10T20:27:14;16.90;99.90
20740;DHT22;10530;49.968;19.844;2023-06-10T20:32:17;16.80;99.90
20740;DHT22;10530;49.968;19.844;2023-06-10T20:37:20;16.80;99.90
20740;DHT22;10530;49.968;19.844;2023-06-10T20:42:23;16.80;99.90
20740;DHT22;10530;49.968;19.844;2023-06-10T20:47:26;16.70;99.90
20740;DHT22;10530;49.968;19.844;2023-06-10T20:52:29;16.70;99.90
20740;DHT22;10530;49.968;19.844;2023-06-10T20:57:32;16.70;99.90
20740;DHT22;10530;49.968;19.844;2023-06-10T21:02:37;16.60;99.90
20740;DHT22;10530;49.968;19.844;2023-06-10T21:07:40;16.60;99.90
20740;DHT22;10530;49.968;19.844;2023-06-10T21:12:47;16.60;99.90
20740;DHT22;10530;49.968;19.844;2023-06-10T21:17:49;16.60;99.90
20740;DHT22;10530;49.968;19.844;2023-06-10T21:22:53;16.60;99.90
20740;DHT22;10530;49.968;19.844;2023-06-10T21:27:55;16.60;99.90
20740;DHT22;10530;49.968;19.844;2023-06-10T21:32:58;16.70;99.90
20740;DHT22;10530;49.968;19.844;2023-06-10T21:38:01;16.90;99.90
20740;DHT22;10530;49.968;19.844;2023-06-10T21:43:04;16.90;99.90
20740;DHT22;10530;49.968;19.844;2023-06-10T21:48:08;16.90;99.90
20740;DHT22;10530;49.968;19.844;2023-06-10T21:53:10;16.90;99.90
20740;DHT22;10530;49.968;19.844;2023-06-10T21:58:13;16.80;99.90
20740;DHT22;10530;49.968;19.844;2023-06-10T22:03:16;16.80;99.90
20740;DHT22;10530;49.968;19.844;2023-06-10T22:08:19;16.80;99.90
20740;DHT22;10530;49.968;19.844;2023-06-10T22:13:22;16.80;99.90
20740;DHT22;10530;49.968;19.844;2023-06-10T22:18:25;16.70;99.90
20740;DHT22;10530;49.968;19.844;2023-06-10T22:23:27;16.60;99.90
20740;DHT22;10530;49.968;19.844;2023-06-10T22:28:30;16.60;99.90
20740;DHT22;10530;49.968;19.844;2023-06-10T22:33:33;16.50;99.90
20740;DHT22;10530;49.968;19.844;2023-06-10T22:38:36;16.40;99.90
20740;DHT22;10530;49.968;19.844;2023-06-10T22:43:39;16.40;99.90
20740;DHT22;10530;49.968;19.844;2023-06-10T22:48:42;16.30;99.90
20740;DHT22;10530;49.968;19.844;2023-06-10T22:53:45;16.40;99.90
20740;DHT22;10530;49.968;19.844;2023-06-10T22:58:48;16.40;99.90
20740;DHT22;10530;49.968;19.844;2023-06-10T23:03:50;16.50;99.90
20740;DHT22;10530;49.968;19.844;2023-06-10T23:08:54;16.50;99.90
20740;DHT22;10530;49.968;19.844;2023-06-10T23:13:57;16.50;99.90
20740;DHT22;10530;49.968;19.844;2023-06-10T23:19:01;16.50;99.90
20740;DHT22;10530;49.968;19.844;2023-06-10T23:24:05;16.50;99.90
20740;DHT22;10530;49.968;19.844;2023-06-10T23:29:08;16.40;99.90
20740;DHT22;10530;49.968;19.844;2023-06-10T23:34:11;16.40;99.90
20740;DHT22;10530;49.968;19.844;2023-06-10T23:39:14;16.30;99.90
20740;DHT22;10530;49.968;19.844;2023-06-10T23:44:17;16.30;99.90
20740;DHT22;10530;49.968;19.844;2023-06-10T23:49:20;16.20;99.90
20740;DHT22;10530;49.968;19.844;2023-06-10T23:54:23;16.20;99.90
20740;DHT22;10530;49.968;19.844;2023-06-10T23:59:26;16.20;99.90
